Delta Virtual Airport Information Service

Christchurch International Airport

ICAO: NZCH Country: New Zealand
Latitude: -43.4894 Longitude: 172.534
Latest Arrival : DAC1937 (YMHB-NZCH) Latest Departure : DAC13654 (NZCH-NZAA)


WX CaptureLIVE
Data provided by noaa.gov | Fetched at 23:55:32

METAR : NZCH 080530Z AUTO 18010KT 160V220 9999 BKN050/// 16/06 Q1010 NOSIG

TAF : NZCH 072301Z 0800/0900 18010KT 9999 SCT050 BECMG 0807/0809 03005KT


Runway Data for NZCH
Data provided by openaviationdata.com

Runway ID Mag Var Hdg Length Elevation Surface ILS Freq ILS Id ILS Slope
2 23 17° 10781 ft 123 ft Bituminous 109.9 ICH 3
11 23 107° 5709 ft 123 ft Bituminous -- -- --
20 23 197° 10781 ft 123 ft Bituminous 110.3 IHW 3
29 23 287° 5709 ft 123 ft Bituminous -- -- --

Christchurch International Airport, New Zealand
Use only for reference purposes



Not for navigational purposes.